createdAt,value
2022-09-03T00:00:11.238Z,1.40
2022-09-03T00:02:45.856Z,1.97
2022-09-03T00:05:21.203Z,1.70
2022-09-03T00:07:56.339Z,2.23
2022-09-03T00:10:32.865Z,2.03
2022-09-03T00:13:04.300Z,2.27
2022-09-03T00:15:37.813Z,1.63
2022-09-03T00:18:08.005Z,1.80
2022-09-03T00:20:41.622Z,1.70
2022-09-03T00:23:12.323Z,2.10
2022-09-03T00:25:44.688Z,1.73
2022-09-03T00:28:15.860Z,2.00
2022-09-03T00:30:48.710Z,1.90
2022-09-03T00:33:22.609Z,2.10
2022-09-03T00:35:56.028Z,2.00
2022-09-03T00:38:24.544Z,2.20
2022-09-03T00:41:06.956Z,1.97
2022-09-03T00:43:48.300Z,2.27
2022-09-03T00:46:24.525Z,1.93
2022-09-03T00:49:20.285Z,1.80
2022-09-03T00:51:56.073Z,1.87
2022-09-03T00:54:30.511Z,1.83
2022-09-03T00:57:11.675Z,1.70
2022-09-03T00:59:46.986Z,1.70
2022-09-03T01:02:22.462Z,1.90
2022-09-03T01:05:01.516Z,1.57
2022-09-03T01:07:35.165Z,1.60
2022-09-03T01:10:14.754Z,1.70
2022-09-03T01:12:52.743Z,1.60
2022-09-03T01:15:25.594Z,1.77
2022-09-03T01:18:04.084Z,2.07
2022-09-03T01:20:42.631Z,1.70
2022-09-03T01:23:59.289Z,2.77
2022-09-03T01:26:40.627Z,1.70
2022-09-03T01:29:18.456Z,2.20
2022-09-03T01:31:51.991Z,1.70
2022-09-03T01:34:33.461Z,1.70
2022-09-03T01:37:09.137Z,1.80
2022-09-03T01:39:48.050Z,1.70
2022-09-03T01:42:23.137Z,2.13
2022-09-03T01:45:09.009Z,1.63
2022-09-03T01:47:48.086Z,1.60
2022-09-03T01:50:37.854Z,1.70
2022-09-03T01:53:11.488Z,1.90
2022-09-03T01:55:48.314Z,2.07
2022-09-03T01:58:21.363Z,1.70
2022-09-03T02:00:58.214Z,2.00
2022-09-03T02:03:28.902Z,1.90
2022-09-03T02:05:58.677Z,1.80
2022-09-03T02:08:26.856Z,2.17
2022-09-03T02:11:01.986Z,2.00
2022-09-03T02:13:34.806Z,2.23
2022-09-03T02:16:13.227Z,2.20
2022-09-03T02:18:43.199Z,2.07
2022-09-03T02:21:12.964Z,2.10
2022-09-03T02:23:42.334Z,2.30
2022-09-03T02:26:13.499Z,2.10
2022-09-03T02:28:42.182Z,2.40
2022-09-03T02:31:12.606Z,1.93
2022-09-03T02:33:46.826Z,2.20
2022-09-03T02:36:17.001Z,2.20
2022-09-03T02:38:46.886Z,2.47
2022-09-03T02:41:16.177Z,2.40
2022-09-03T02:43:49.404Z,2.30
2022-09-03T02:46:24.467Z,2.30
2022-09-03T02:48:54.481Z,2.43
2022-09-03T02:51:23.130Z,2.17
2022-09-03T02:53:53.454Z,2.10
2022-09-03T02:56:26.991Z,1.93
2022-09-03T02:58:56.250Z,2.10
2022-09-03T03:01:26.629Z,2.10
2022-09-03T03:03:56.458Z,2.40
2022-09-03T03:06:25.079Z,2.10
2022-09-03T03:08:57.156Z,2.37
2022-09-03T03:11:27.394Z,2.20
2022-09-03T03:13:56.929Z,2.30
2022-09-03T03:16:27.545Z,2.27
2022-09-03T03:18:57.482Z,2.10
2022-09-03T03:21:26.008Z,2.70
2022-09-03T03:23:55.322Z,2.50
2022-09-03T03:26:24.396Z,2.40
2022-09-03T03:28:58.631Z,2.30
2022-09-03T03:31:29.529Z,2.83
2022-09-03T03:34:00.135Z,2.30
2022-09-03T03:36:32.247Z,2.23
2022-09-03T03:39:02.329Z,2.30
2022-09-03T03:41:35.252Z,2.27
2022-09-03T03:44:05.675Z,2.87
2022-09-03T03:46:38.668Z,2.17
2022-09-03T03:49:07.645Z,2.17
2022-09-03T03:51:38.082Z,2.60
2022-09-03T03:54:07.484Z,2.70
2022-09-03T03:56:36.917Z,2.27
2022-09-03T03:59:05.924Z,2.90
2022-09-03T04:01:36.943Z,2.20
2022-09-03T04:04:06.549Z,2.30
2022-09-03T04:06:36.153Z,2.63
2022-09-03T04:09:05.154Z,2.53
2022-09-03T04:11:35.988Z,2.67
2022-09-03T04:14:05.287Z,2.57
2022-09-03T04:16:34.239Z,2.80
2022-09-03T04:19:03.902Z,2.57
2022-09-03T04:21:32.275Z,2.50
2022-09-03T04:24:01.165Z,2.30
2022-09-03T04:26:32.197Z,2.70
2022-09-03T04:29:02.432Z,2.40
2022-09-03T04:31:32.399Z,2.30
2022-09-03T04:34:01.291Z,2.57
2022-09-03T04:36:33.565Z,2.53
2022-09-03T04:39:02.868Z,2.43
2022-09-03T04:41:35.225Z,2.60
2022-09-03T04:44:04.426Z,2.60
2022-09-03T04:46:34.213Z,2.47
2022-09-03T04:49:03.531Z,2.37
2022-09-03T04:51:39.230Z,2.40
2022-09-03T04:54:10.070Z,2.90
2022-09-03T04:56:40.700Z,2.67
2022-09-03T04:59:10.283Z,2.93
2022-09-03T05:01:41.000Z,3.00
2022-09-03T05:04:09.674Z,2.97
2022-09-03T05:06:40.457Z,2.63
2022-09-03T05:09:09.765Z,2.60
2022-09-03T05:11:39.363Z,2.60
2022-09-03T05:14:12.000Z,2.70
2022-09-03T05:16:41.376Z,3.30
2022-09-03T05:19:09.735Z,2.63
2022-09-03T05:21:41.541Z,3.00
2022-09-03T05:24:11.556Z,2.60
2022-09-03T05:26:42.049Z,2.80
2022-09-03T05:29:10.430Z,2.67
2022-09-03T05:31:40.853Z,2.90
2022-09-03T05:34:16.433Z,2.63
2022-09-03T05:36:49.972Z,2.40
2022-09-03T05:39:19.530Z,2.67
2022-09-03T05:41:52.400Z,2.70
2022-09-03T05:44:23.297Z,2.87
2022-09-03T05:46:55.204Z,3.07
2022-09-03T05:49:25.009Z,2.80
2022-09-03T05:51:54.666Z,3.87
2022-09-03T05:54:24.008Z,2.60
2022-09-03T05:56:52.300Z,3.03
2022-09-03T05:59:22.009Z,2.70
2022-09-03T06:01:53.740Z,2.43
2022-09-03T06:04:26.214Z,3.40
2022-09-03T06:06:57.451Z,2.77
2022-09-03T06:09:26.877Z,2.57
2022-09-03T06:11:57.301Z,2.70
2022-09-03T06:14:28.193Z,3.10
2022-09-03T06:16:57.405Z,3.67
2022-09-03T06:19:25.601Z,3.00
2022-09-03T06:21:55.540Z,2.90
2022-09-03T06:24:28.139Z,3.43
2022-09-03T06:26:57.692Z,3.33
2022-09-03T06:29:27.775Z,2.80
2022-09-03T06:31:56.889Z,3.07
2022-09-03T06:34:27.297Z,3.50
2022-09-03T06:36:56.338Z,3.40
2022-09-03T06:39:27.416Z,3.03
2022-09-03T06:41:56.342Z,3.30
2022-09-03T06:44:41.953Z,3.30
2022-09-03T06:47:10.291Z,3.23
2022-09-03T06:49:39.612Z,3.07
2022-09-03T06:52:09.368Z,3.50
2022-09-03T06:54:40.850Z,3.30
2022-09-03T06:57:10.529Z,4.17
2022-09-03T06:59:40.068Z,3.37
2022-09-03T07:02:08.941Z,3.70
2022-09-03T07:04:38.570Z,3.23
2022-09-03T07:07:13.350Z,3.27
2022-09-03T07:09:48.118Z,3.27
2022-09-03T07:12:19.370Z,3.17
2022-09-03T07:14:48.731Z,3.50
2022-09-03T07:17:20.462Z,3.33
2022-09-03T07:19:49.417Z,3.07
2022-09-03T07:22:18.993Z,3.30
2022-09-03T07:24:48.796Z,3.00
2022-09-03T07:27:18.832Z,2.80
2022-09-03T07:29:47.352Z,3.60
2022-09-03T07:32:16.946Z,3.07
2022-09-03T07:34:45.343Z,2.90
2022-09-03T07:37:14.398Z,3.00
2022-09-03T07:39:44.110Z,2.90
2022-09-03T07:42:13.858Z,3.00
2022-09-03T07:44:43.192Z,2.97
2022-09-03T07:47:11.584Z,3.53
2022-09-03T07:49:41.004Z,3.83
2022-09-03T07:52:11.996Z,3.40
2022-09-03T07:54:44.691Z,3.37
2022-09-03T07:57:15.023Z,3.17
2022-09-03T07:59:44.249Z,3.43
2022-09-03T08:02:12.392Z,3.10
2022-09-03T08:04:43.558Z,3.10
2022-09-03T08:07:12.489Z,2.70
2022-09-03T08:09:41.947Z,2.90
2022-09-03T08:12:10.438Z,3.03
2022-09-03T08:14:41.392Z,2.53
2022-09-03T08:17:12.781Z,2.60
2022-09-03T08:19:43.750Z,2.80
2022-09-03T08:22:12.371Z,2.30
2022-09-03T08:24:43.052Z,2.93
2022-09-03T08:27:11.440Z,2.30
2022-09-03T08:29:42.353Z,2.00
2022-09-03T08:32:12.073Z,2.37
2022-09-03T08:34:42.627Z,2.90
2022-09-03T08:37:12.686Z,3.10
2022-09-03T08:39:51.095Z,2.47
2022-09-03T08:42:40.094Z,2.43
2022-09-03T08:45:11.889Z,3.00
2022-09-03T08:47:43.817Z,2.30
2022-09-03T08:50:18.299Z,2.70
2022-09-03T08:52:49.308Z,2.53
2022-09-03T08:55:23.499Z,2.20
2022-09-03T08:57:52.956Z,2.83
2022-09-03T09:00:22.881Z,2.83
2022-09-03T09:03:00.501Z,2.10
2022-09-03T09:05:44.026Z,2.13
2022-09-03T09:08:22.803Z,2.47
2022-09-03T09:10:59.096Z,2.30
2022-09-03T09:13:30.965Z,2.30
2022-09-03T09:16:07.378Z,2.20
2022-09-03T09:18:55.218Z,2.30
2022-09-03T09:21:29.726Z,2.00
2022-09-03T09:24:05.278Z,2.70
2022-09-03T09:26:35.643Z,2.90
2022-09-03T09:29:10.052Z,2.67
2022-09-03T09:31:44.775Z,2.07
2022-09-03T09:34:14.640Z,2.43
2022-09-03T09:36:45.503Z,2.30
2022-09-03T09:39:16.872Z,2.47
2022-09-03T09:41:56.109Z,2.17
2022-09-03T09:44:28.153Z,2.20
2022-09-03T09:47:07.951Z,2.20
2022-09-03T09:49:39.115Z,2.20
2022-09-03T09:52:12.043Z,2.20
2022-09-03T09:54:45.677Z,2.13
2022-09-03T09:57:18.322Z,2.60
2022-09-03T09:59:50.860Z,1.90
2022-09-03T10:02:27.925Z,2.63
2022-09-03T10:05:00.250Z,2.23
2022-09-03T10:07:39.951Z,1.97
2022-09-03T10:10:19.372Z,2.43
2022-09-03T10:12:52.058Z,2.03
2022-09-03T10:15:25.221Z,1.73
2022-09-03T10:18:10.046Z,2.10
2022-09-03T10:20:47.330Z,2.17
2022-09-03T10:23:22.846Z,1.90
2022-09-03T10:26:05.171Z,2.37
2022-09-03T10:28:39.486Z,2.23
2022-09-03T10:31:33.077Z,2.33
2022-09-03T10:34:07.914Z,1.63
2022-09-03T10:36:44.967Z,2.40
2022-09-03T10:39:17.822Z,2.50
2022-09-03T10:42:02.776Z,2.27
2022-09-03T10:44:44.219Z,2.27
2022-09-03T10:47:24.103Z,2.13
2022-09-03T10:49:59.263Z,1.83
2022-09-03T10:52:31.057Z,2.13
2022-09-03T10:55:14.078Z,1.70
2022-09-03T10:57:48.291Z,1.83
2022-09-03T11:00:24.862Z,2.00
2022-09-03T11:03:30.108Z,1.90
2022-09-03T11:06:06.421Z,2.30
2022-09-03T11:08:38.642Z,1.93
2022-09-03T11:11:16.728Z,2.33
2022-09-03T11:13:49.065Z,2.03
2022-09-03T11:16:20.760Z,2.37
2022-09-03T11:18:52.647Z,1.93
2022-09-03T11:21:27.520Z,1.93
2022-09-03T11:24:07.230Z,2.40
2022-09-03T11:26:36.326Z,2.37
2022-09-03T11:29:11.090Z,2.30
2022-09-03T11:31:48.274Z,2.20
2022-09-03T11:34:32.625Z,2.13
2022-09-03T11:37:19.929Z,2.07
2022-09-03T11:40:00.816Z,1.90
2022-09-03T11:42:33.709Z,1.93
2022-09-03T11:45:16.303Z,3.30
2022-09-03T11:47:47.118Z,1.90
2022-09-03T11:50:22.691Z,1.63
2022-09-03T11:52:54.592Z,1.70
2022-09-03T11:55:37.624Z,1.97
2022-09-03T11:58:14.219Z,1.40
2022-09-03T12:00:45.476Z,1.80
2022-09-03T12:03:18.110Z,1.90
2022-09-03T12:05:53.964Z,2.30
2022-09-03T12:08:50.048Z,1.50
2022-09-03T12:11:34.741Z,2.00
2022-09-03T12:14:13.861Z,2.27
2022-09-03T12:17:08.268Z,2.10
2022-09-03T12:19:41.882Z,1.67
2022-09-03T12:22:15.184Z,1.90
2022-09-03T12:24:46.445Z,2.00
2022-09-03T12:27:18.244Z,1.73
2022-09-03T12:30:00.151Z,1.80
2022-09-03T12:32:37.308Z,1.50
2022-09-03T12:35:57.739Z,2.07
2022-09-03T12:38:06.953Z,2.20
2022-09-03T12:43:49.974Z,2.00
2022-09-03T12:46:18.843Z,2.00
2022-09-03T12:51:52.099Z,1.90
2022-09-03T12:54:24.404Z,1.77
2022-09-03T12:56:56.897Z,2.23
2022-09-03T12:59:27.933Z,1.60
2022-09-03T13:01:59.799Z,1.70
2022-09-03T13:04:33.402Z,2.00
2022-09-03T13:07:04.663Z,1.63
2022-09-03T13:09:38.102Z,1.37
2022-09-03T13:12:08.949Z,1.80
2022-09-03T13:14:47.387Z,1.90
2022-09-03T13:17:47.674Z,1.50
2022-09-03T13:20:34.556Z,1.50
2022-09-03T13:23:11.997Z,1.33
2022-09-03T13:25:52.553Z,1.83
2022-09-03T13:28:33.963Z,1.57
2022-09-03T13:31:07.848Z,1.63
2022-09-03T13:33:42.053Z,1.43
2022-09-03T13:36:16.252Z,1.80
2022-09-03T13:38:51.098Z,1.77
2022-09-03T13:41:36.502Z,1.40
2022-09-03T13:44:16.018Z,1.70
2022-09-03T13:46:49.781Z,1.70
2022-09-03T13:49:47.295Z,1.73
2022-09-03T13:52:22.558Z,1.80
2022-09-03T13:54:55.832Z,1.70
2022-09-03T13:57:35.346Z,1.47
2022-09-03T14:00:08.563Z,1.47
2022-09-03T14:02:48.563Z,1.57
2022-09-03T14:05:21.337Z,1.93
2022-09-03T14:07:55.946Z,2.20
2022-09-03T14:10:32.240Z,1.90
2022-09-03T14:13:12.705Z,1.63
2022-09-03T14:15:49.638Z,1.67
2022-09-03T14:18:31.908Z,2.20
2022-09-03T14:21:04.888Z,1.60
2022-09-03T14:23:42.431Z,2.63
2022-09-03T14:26:18.292Z,1.43
2022-09-03T14:28:50.693Z,1.90
2022-09-03T14:31:28.276Z,2.00
2022-09-03T14:34:06.083Z,1.70
2022-09-03T14:36:40.650Z,1.47
2022-09-03T14:39:32.630Z,1.90
2022-09-03T14:42:30.533Z,2.30
2022-09-03T14:45:17.361Z,1.43
2022-09-03T14:48:00.220Z,1.87
2022-09-03T14:50:42.306Z,2.23
2022-09-03T14:53:26.678Z,1.50
2022-09-03T14:56:09.890Z,2.20
2022-09-03T14:58:50.597Z,2.07
2022-09-03T15:01:27.279Z,1.60
2022-09-03T15:04:32.772Z,1.67
2022-09-03T15:07:14.487Z,1.57
2022-09-03T15:09:48.188Z,1.83
2022-09-03T15:12:21.024Z,1.70
2022-09-03T15:14:55.282Z,1.57
2022-09-03T15:17:45.127Z,1.97
2022-09-03T15:20:23.875Z,2.07
2022-09-03T15:23:13.370Z,1.70
2022-09-03T15:26:23.113Z,1.73
2022-09-03T15:29:03.043Z,1.70
2022-09-03T15:31:45.321Z,1.60
2022-09-03T15:34:21.339Z,1.70
2022-09-03T15:36:53.886Z,1.80
2022-09-03T15:39:25.310Z,2.00
2022-09-03T15:41:58.542Z,3.17
2022-09-03T15:44:28.625Z,1.93
2022-09-03T15:47:00.671Z,1.57
2022-09-03T15:49:38.413Z,1.50
2022-09-03T15:52:24.939Z,1.67
2022-09-03T15:54:59.939Z,1.50
2022-09-03T15:57:30.684Z,1.63
2022-09-03T16:00:04.243Z,1.57
2022-09-03T16:02:47.480Z,1.63
2022-09-03T16:05:19.747Z,1.67
2022-09-03T16:08:09.570Z,1.83
2022-09-03T16:10:46.333Z,2.13
2022-09-03T16:13:34.788Z,2.47
2022-09-03T16:16:04.697Z,1.90
2022-09-03T16:18:37.090Z,1.53
2022-09-03T16:21:10.012Z,1.50
2022-09-03T16:23:43.378Z,1.67
2022-09-03T16:26:16.151Z,1.80
2022-09-03T16:28:50.358Z,1.83
2022-09-03T16:31:27.962Z,1.70
2022-09-03T16:34:03.451Z,1.70
2022-09-03T16:36:40.898Z,1.80
2022-09-03T16:39:18.085Z,1.83
2022-09-03T16:41:54.186Z,1.80
2022-09-03T16:44:28.834Z,2.00
2022-09-03T16:47:02.917Z,2.00
2022-09-03T16:49:44.335Z,1.93
2022-09-03T16:52:20.484Z,1.97
2022-09-03T16:55:04.366Z,1.90
2022-09-03T16:57:46.074Z,1.77
2022-09-03T17:00:15.942Z,2.03
2022-09-03T17:03:25.061Z,2.10
2022-09-03T17:06:23.002Z,2.23
2022-09-03T17:09:00.023Z,2.00
2022-09-03T17:11:43.136Z,1.70
2022-09-03T17:14:23.545Z,2.10
2022-09-03T17:17:00.201Z,1.90
2022-09-03T17:19:36.023Z,1.87
2022-09-03T17:22:13.107Z,1.90
2022-09-03T17:24:48.011Z,1.90
2022-09-03T17:27:42.047Z,2.10
2022-09-03T17:30:16.971Z,2.10
2022-09-03T17:33:06.600Z,2.60
2022-09-03T17:35:39.717Z,2.00
2022-09-03T17:38:19.165Z,1.80
2022-09-03T17:40:58.583Z,2.20
2022-09-03T17:43:36.477Z,2.40
2022-09-03T17:46:14.548Z,2.00
2022-09-03T17:48:51.401Z,2.23
2022-09-03T17:51:31.638Z,3.30
2022-09-03T17:54:07.167Z,3.17
2022-09-03T17:56:44.914Z,2.90
2022-09-03T17:59:22.677Z,2.00
2022-09-03T18:01:56.074Z,2.50
2022-09-03T18:04:35.908Z,2.13
2022-09-03T18:07:12.388Z,1.67
2022-09-03T18:09:47.732Z,1.90
2022-09-03T18:12:32.482Z,1.70
2022-09-03T18:15:08.999Z,2.10
2022-09-03T18:17:43.182Z,2.03
2022-09-03T18:20:31.901Z,2.17
2022-09-03T18:23:21.763Z,2.27
2022-09-03T18:26:10.706Z,2.20
2022-09-03T18:28:59.588Z,1.70
2022-09-03T18:31:49.397Z,2.73
2022-09-03T18:34:37.652Z,2.37
2022-09-03T18:37:24.998Z,2.23
2022-09-03T18:40:11.230Z,2.30
2022-09-03T18:43:07.102Z,2.80
2022-09-03T18:49:14.577Z,2.60
2022-09-03T18:52:05.338Z,2.60
2022-09-03T18:55:07.745Z,2.50
2022-09-03T18:58:02.196Z,2.60
2022-09-03T19:00:54.194Z,1.70
2022-09-03T19:03:54.827Z,2.47
2022-09-03T19:06:52.500Z,2.40
2022-09-03T19:09:50.713Z,2.30
2022-09-03T19:12:58.923Z,2.50
2022-09-03T19:15:49.070Z,2.67
2022-09-03T19:18:44.880Z,2.40
2022-09-03T19:21:39.702Z,2.80
2022-09-03T19:24:28.296Z,2.50
2022-09-03T19:27:51.829Z,2.30
2022-09-03T19:30:37.719Z,2.53
2022-09-03T19:33:30.944Z,2.30
2022-09-03T19:36:26.568Z,2.70
2022-09-03T19:39:25.407Z,2.30
2022-09-03T19:42:20.857Z,2.80
2022-09-03T19:45:18.252Z,2.70
2022-09-03T19:48:21.002Z,2.27
2022-09-03T19:51:19.712Z,2.70
2022-09-03T19:54:07.684Z,2.17
2022-09-03T19:56:55.804Z,2.03
2022-09-03T19:59:46.818Z,2.10
2022-09-03T20:02:33.562Z,2.13
2022-09-03T20:05:22.595Z,2.27
2022-09-03T20:08:10.983Z,2.20
2022-09-03T20:10:42.685Z,2.43
2022-09-03T20:13:15.033Z,2.27
2022-09-03T20:15:53.705Z,2.13
2022-09-03T20:18:34.091Z,2.17
2022-09-03T20:21:10.971Z,2.23
2022-09-03T20:23:48.253Z,2.00
2022-09-03T20:26:28.803Z,2.27
2022-09-03T20:29:35.285Z,2.10
2022-09-03T20:32:11.715Z,2.23
2022-09-03T20:34:48.678Z,2.03
2022-09-03T20:37:27.772Z,2.50
2022-09-03T20:40:09.928Z,2.50
2022-09-03T20:42:50.136Z,2.47
2022-09-03T20:45:21.621Z,2.13
2022-09-03T20:48:09.976Z,2.63
2022-09-03T20:50:48.645Z,2.60
2022-09-03T20:53:28.227Z,2.40
2022-09-03T20:56:03.687Z,2.20
2022-09-03T20:58:38.442Z,2.40
2022-09-03T21:01:10.151Z,2.40
2022-09-03T21:03:46.864Z,2.80
2022-09-03T21:06:25.493Z,2.80
2022-09-03T21:09:05.039Z,2.60
2022-09-03T21:11:39.589Z,3.07
2022-09-03T21:14:20.626Z,2.30
2022-09-03T21:17:00.270Z,2.50
2022-09-03T21:19:45.115Z,2.47
2022-09-03T21:22:22.990Z,2.83
2022-09-03T21:24:54.965Z,2.17
2022-09-03T21:27:25.843Z,2.53
2022-09-03T21:30:02.064Z,2.00
2022-09-03T21:32:36.765Z,2.20
2022-09-03T21:35:14.875Z,2.40
2022-09-03T21:37:49.469Z,2.43
2022-09-03T21:40:24.200Z,2.30
2022-09-03T21:42:59.885Z,2.60
2022-09-03T21:45:35.855Z,2.23
2022-09-03T21:48:07.783Z,2.30
2022-09-03T21:50:47.629Z,2.67
2022-09-03T21:53:25.689Z,2.97
2022-09-03T21:56:14.351Z,2.57
2022-09-03T21:58:54.584Z,2.47
2022-09-03T22:01:29.469Z,3.67
2022-09-03T22:03:59.729Z,2.47
2022-09-03T22:06:41.905Z,2.30
2022-09-03T22:09:15.241Z,2.27
2022-09-03T22:11:52.282Z,2.40
2022-09-03T22:14:23.603Z,2.73
2022-09-03T22:16:57.167Z,2.80
2022-09-03T22:19:37.666Z,2.93
2022-09-03T22:22:17.425Z,2.73
2022-09-03T22:24:51.119Z,2.60
2022-09-03T22:27:26.422Z,3.00
2022-09-03T22:30:03.808Z,2.97
2022-09-03T22:32:45.386Z,2.83
2022-09-03T22:35:36.572Z,3.17
2022-09-03T22:38:19.531Z,2.97
2022-09-03T22:40:52.486Z,3.40
2022-09-03T22:43:37.030Z,3.00
2022-09-03T22:46:09.026Z,3.20
2022-09-03T22:48:53.489Z,3.43
2022-09-03T22:51:22.136Z,3.60
2022-09-03T22:54:07.703Z,3.93
2022-09-03T22:56:39.662Z,3.10
2022-09-03T22:59:13.740Z,3.80
2022-09-03T23:01:44.941Z,3.70
2022-09-03T23:04:19.204Z,3.40
2022-09-03T23:06:53.397Z,3.63
2022-09-03T23:09:27.238Z,3.90
2022-09-03T23:11:58.890Z,3.17
2022-09-03T23:14:32.382Z,3.30
2022-09-03T23:17:07.534Z,3.40
2022-09-03T23:19:41.766Z,3.30
2022-09-03T23:22:13.607Z,3.13
2022-09-03T23:24:49.351Z,3.87
2022-09-03T23:27:20.032Z,3.70
2022-09-03T23:29:52.507Z,3.83
2022-09-03T23:32:20.702Z,3.20
2022-09-03T23:34:50.373Z,3.17
2022-09-03T23:37:34.171Z,3.00
2022-09-03T23:40:15.429Z,3.20
2022-09-03T23:42:54.967Z,3.00
2022-09-03T23:45:30.720Z,3.20
2022-09-03T23:48:04.935Z,3.23
2022-09-03T23:50:37.558Z,3.30
2022-09-03T23:53:26.288Z,3.10
2022-09-03T23:56:11.957Z,3.40
2022-09-03T23:58:53.576Z,2.83
